createdAt,value
2022-10-30T00:00:36.846Z,18.43
2022-10-30T00:03:04.296Z,22.80
2022-10-30T00:05:31.244Z,17.57
2022-10-30T00:07:59.585Z,19.27
2022-10-30T00:10:26.510Z,21.57
2022-10-30T00:12:53.703Z,19.43
2022-10-30T00:15:20.293Z,15.00
2022-10-30T00:17:46.860Z,29.73
2022-10-30T00:20:13.414Z,25.80
2022-10-30T00:22:39.965Z,20.70
2022-10-30T00:25:06.860Z,18.20
2022-10-30T00:27:33.393Z,19.40
2022-10-30T00:29:59.958Z,20.63
2022-10-30T00:32:28.577Z,20.53
2022-10-30T00:34:55.161Z,30.53
2022-10-30T00:37:21.809Z,26.47
2022-10-30T00:39:49.312Z,25.33
2022-10-30T00:42:17.583Z,20.53
2022-10-30T00:44:44.250Z,14.90
2022-10-30T00:47:23.278Z,21.80
2022-10-30T00:49:58.837Z,22.70
2022-10-30T00:52:29.837Z,22.97
2022-10-30T00:54:58.368Z,24.63
2022-10-30T00:57:27.109Z,25.73
2022-10-30T00:59:54.014Z,16.13
2022-10-30T01:02:21.559Z,21.97
2022-10-30T01:04:51.143Z,30.00
2022-10-30T01:07:18.100Z,19.30
2022-10-30T01:09:46.836Z,14.10
2022-10-30T01:12:15.802Z,20.13
2022-10-30T01:14:52.124Z,19.20
2022-10-30T01:17:58.887Z,20.83
2022-10-30T01:20:41.377Z,23.00
2022-10-30T01:23:13.802Z,23.63
2022-10-30T01:26:10.921Z,24.33
2022-10-30T01:29:14.866Z,31.63
2022-10-30T01:31:51.932Z,14.90
2022-10-30T01:34:28.468Z,14.37
2022-10-30T01:37:02.877Z,12.43
2022-10-30T01:39:37.378Z,32.47
2022-10-30T01:42:45.709Z,22.03
2022-10-30T01:45:21.930Z,17.53
2022-10-30T01:47:59.660Z,19.37
2022-10-30T01:50:39.433Z,17.37
2022-10-30T01:53:20.707Z,14.00
2022-10-30T01:56:10.481Z,12.23
2022-10-30T01:58:48.011Z,19.20
2022-10-30T02:01:15.523Z,19.20
2022-10-30T02:03:43.907Z,12.87
2022-10-30T02:06:10.507Z,13.37
2022-10-30T02:08:37.491Z,14.30
2022-10-30T02:11:05.285Z,17.60
2022-10-30T02:13:38.456Z,14.23
2022-10-30T02:16:05.829Z,22.43
2022-10-30T02:18:32.493Z,15.57
2022-10-30T02:21:01.070Z,16.30
2022-10-30T02:23:27.711Z,25.90
2022-10-30T02:25:54.922Z,16.20
2022-10-30T02:28:21.701Z,15.67
2022-10-30T02:30:48.885Z,19.83
2022-10-30T02:33:15.503Z,15.07
2022-10-30T02:35:42.422Z,14.23
2022-10-30T02:38:09.116Z,17.23
2022-10-30T02:40:35.692Z,14.23
2022-10-30T02:43:02.446Z,20.70
2022-10-30T02:45:29.767Z,25.50
2022-10-30T02:47:56.763Z,14.00
2022-10-30T02:50:23.596Z,12.93
2022-10-30T02:52:51.557Z,12.73
2022-10-30T02:55:18.214Z,15.43
2022-10-30T02:57:44.997Z,19.90
2022-10-30T03:00:12.803Z,15.67
2022-10-30T03:02:39.697Z,20.53
2022-10-30T03:05:06.838Z,20.60
2022-10-30T03:07:33.689Z,14.43
2022-10-30T03:10:00.630Z,12.53
2022-10-30T03:12:27.579Z,19.00
2022-10-30T03:14:54.175Z,14.57
2022-10-30T03:17:20.919Z,18.73
2022-10-30T03:19:48.980Z,12.37
2022-10-30T03:22:15.571Z,22.97
2022-10-30T03:24:42.316Z,17.87
2022-10-30T03:27:08.886Z,24.37
2022-10-30T03:29:35.576Z,16.70
2022-10-30T03:32:04.128Z,16.53
2022-10-30T03:34:35.841Z,19.93
2022-10-30T03:37:06.425Z,14.10
2022-10-30T03:39:33.605Z,65.90
2022-10-30T03:42:02.304Z,20.80
2022-10-30T03:44:28.887Z,17.10
2022-10-30T03:46:56.425Z,17.47
2022-10-30T03:49:29.936Z,8.50
2022-10-30T03:51:57.544Z,13.67
2022-10-30T03:54:25.934Z,11.70
2022-10-30T03:56:52.605Z,13.37
2022-10-30T03:59:20.077Z,14.13
2022-10-30T04:02:03.999Z,10.80
2022-10-30T04:04:32.788Z,13.80
2022-10-30T04:06:59.427Z,17.10
2022-10-30T04:09:25.988Z,16.80
2022-10-30T04:11:53.587Z,16.03
2022-10-30T04:14:20.199Z,13.17
2022-10-30T04:16:48.177Z,22.53
2022-10-30T04:19:15.144Z,21.07
2022-10-30T04:21:46.358Z,12.37
2022-10-30T04:24:16.075Z,16.53
2022-10-30T04:26:44.943Z,13.40
2022-10-30T04:29:12.145Z,15.73
2022-10-30T04:31:39.396Z,17.23
2022-10-30T04:34:06.087Z,13.27
2022-10-30T04:36:35.521Z,11.40
2022-10-30T04:39:02.556Z,15.47
2022-10-30T04:41:29.519Z,10.80
2022-10-30T04:44:04.045Z,10.20
2022-10-30T04:46:33.011Z,25.87
2022-10-30T04:49:06.956Z,12.00
2022-10-30T04:51:33.538Z,16.53
2022-10-30T04:54:01.391Z,13.93
2022-10-30T04:56:32.876Z,11.43
2022-10-30T04:58:59.824Z,12.47
2022-10-30T05:01:26.523Z,16.60
2022-10-30T05:03:54.796Z,12.43
2022-10-30T05:06:25.065Z,18.30
2022-10-30T05:08:52.089Z,18.53
2022-10-30T05:11:45.365Z,12.53
2022-10-30T05:14:13.112Z,9.63
2022-10-30T05:16:39.740Z,15.40
2022-10-30T05:19:07.365Z,16.73
2022-10-30T05:21:35.161Z,17.37
2022-10-30T05:24:02.126Z,18.50
2022-10-30T05:26:35.919Z,15.67
2022-10-30T05:29:02.774Z,15.70
2022-10-30T05:31:29.764Z,17.83
2022-10-30T05:34:07.416Z,17.83
2022-10-30T05:36:35.994Z,18.20
2022-10-30T05:39:03.348Z,11.97
2022-10-30T05:41:34.233Z,17.30
2022-10-30T05:44:01.171Z,15.10
2022-10-30T05:46:27.790Z,20.60
2022-10-30T05:48:56.373Z,18.00
2022-10-30T05:51:24.239Z,19.87
2022-10-30T05:53:55.024Z,16.43
2022-10-30T05:56:25.604Z,20.13
2022-10-30T05:58:52.173Z,15.97
2022-10-30T06:01:18.867Z,21.40
2022-10-30T06:03:50.124Z,16.33
2022-10-30T06:06:17.146Z,13.00
2022-10-30T06:08:44.534Z,18.00
2022-10-30T06:11:30.248Z,16.90
2022-10-30T06:13:59.117Z,17.47
2022-10-30T06:16:38.597Z,9.83
2022-10-30T06:19:22.042Z,25.23
2022-10-30T06:21:51.442Z,18.33
2022-10-30T06:24:27.693Z,29.60
2022-10-30T06:27:26.683Z,23.97
2022-10-30T06:29:54.884Z,13.87
2022-10-30T06:32:22.044Z,13.23
2022-10-30T06:34:49.328Z,14.67
2022-10-30T06:37:17.827Z,13.10
2022-10-30T06:39:44.918Z,25.07
2022-10-30T06:42:48.495Z,23.50
2022-10-30T06:45:37.161Z,11.00
2022-10-30T06:48:03.802Z,17.63
2022-10-30T06:50:36.389Z,15.73
2022-10-30T06:53:02.952Z,12.97
2022-10-30T06:55:29.849Z,19.33
2022-10-30T06:58:19.884Z,20.80
2022-10-30T07:00:52.652Z,12.13
2022-10-30T07:03:42.516Z,11.60
2022-10-30T07:06:09.126Z,15.30
2022-10-30T07:08:36.421Z,15.23
2022-10-30T07:11:03.285Z,13.67
2022-10-30T07:14:00.363Z,18.60
2022-10-30T07:16:33.769Z,13.90
2022-10-30T07:19:04.469Z,16.00
2022-10-30T07:21:32.175Z,16.37
2022-10-30T07:23:58.830Z,17.27
2022-10-30T07:26:33.579Z,20.10
2022-10-30T07:29:06.491Z,24.90
2022-10-30T07:31:42.628Z,13.30
2022-10-30T07:34:55.070Z,12.23
2022-10-30T07:37:35.178Z,7.50
2022-10-30T07:40:12.532Z,13.53
2022-10-30T07:43:06.207Z,14.07
2022-10-30T07:45:58.816Z,14.50
2022-10-30T07:48:44.171Z,8.97
2022-10-30T07:51:28.891Z,10.13
2022-10-30T07:53:55.491Z,13.43
2022-10-30T07:56:23.846Z,13.77
2022-10-30T07:58:56.151Z,17.13
2022-10-30T08:01:44.381Z,8.10
2022-10-30T08:04:32.097Z,11.63
2022-10-30T08:07:06.658Z,19.30
2022-10-30T08:09:35.216Z,11.87
2022-10-30T08:12:02.352Z,14.80
2022-10-30T08:14:29.426Z,13.03
2022-10-30T08:16:56.663Z,11.03
2022-10-30T08:19:23.628Z,9.30
2022-10-30T08:21:50.255Z,14.60
2022-10-30T08:24:18.974Z,10.57
2022-10-30T08:26:47.900Z,14.52
2022-10-30T08:29:15.221Z,11.40
2022-10-30T08:31:43.884Z,10.82
2022-10-30T08:34:23.015Z,13.90
2022-10-30T08:36:52.771Z,11.60
2022-10-30T08:39:20.032Z,12.90
2022-10-30T08:42:04.589Z,12.27
2022-10-30T08:44:37.009Z,17.33
2022-10-30T08:47:22.370Z,11.27
2022-10-30T08:49:49.724Z,7.30
2022-10-30T08:52:19.618Z,19.52
2022-10-30T08:54:51.751Z,11.93
2022-10-30T08:57:18.590Z,9.35
2022-10-30T08:59:45.479Z,12.68
2022-10-30T09:02:31.037Z,13.20
2022-10-30T09:05:37.300Z,10.40
2022-10-30T09:08:23.905Z,12.32
2022-10-30T09:11:03.043Z,11.77
2022-10-30T09:13:30.171Z,13.77
2022-10-30T09:16:02.381Z,19.38
2022-10-30T09:18:31.606Z,14.07
2022-10-30T09:21:01.587Z,14.32
2022-10-30T09:23:33.390Z,14.27
2022-10-30T09:26:20.905Z,15.35
2022-10-30T09:29:00.527Z,9.93
2022-10-30T09:31:46.013Z,16.08
2022-10-30T09:34:17.337Z,13.13
2022-10-30T09:36:58.710Z,8.77
2022-10-30T09:39:25.614Z,7.80
2022-10-30T09:42:08.611Z,10.60
2022-10-30T09:45:27.222Z,11.30
2022-10-30T09:48:51.514Z,7.93
2022-10-30T09:51:38.870Z,14.48
2022-10-30T09:54:23.677Z,11.10
2022-10-30T09:57:11.290Z,7.15
2022-10-30T09:59:56.559Z,12.88
2022-10-30T10:02:45.102Z,10.95
2022-10-30T10:05:21.219Z,11.18
2022-10-30T10:08:21.758Z,13.25
2022-10-30T10:11:24.511Z,9.10
2022-10-30T10:13:58.689Z,6.82
2022-10-30T10:16:30.265Z,10.48
2022-10-30T10:19:13.183Z,10.18
2022-10-30T10:21:46.387Z,15.63
2022-10-30T10:24:23.694Z,17.63
2022-10-30T10:26:57.586Z,23.45
2022-10-30T10:29:34.029Z,16.55
2022-10-30T10:32:24.153Z,15.43
2022-10-30T10:34:59.415Z,15.57
2022-10-30T10:37:40.756Z,10.85
2022-10-30T10:40:44.224Z,14.00
2022-10-30T10:43:13.711Z,13.85
2022-10-30T10:45:52.622Z,14.80
2022-10-30T10:48:38.334Z,15.48
2022-10-30T10:51:09.666Z,11.30
2022-10-30T10:53:57.590Z,33.43
2022-10-30T10:56:38.019Z,22.30
2022-10-30T10:59:13.130Z,18.77
2022-10-30T11:01:44.178Z,16.03
2022-10-30T11:04:26.353Z,17.50
2022-10-30T11:06:55.496Z,18.13
2022-10-30T11:09:24.449Z,16.10
2022-10-30T11:11:53.376Z,16.83
2022-10-30T11:14:22.450Z,24.17
2022-10-30T11:16:51.688Z,22.43
2022-10-30T11:19:19.145Z,16.83
2022-10-30T11:21:51.508Z,17.03
2022-10-30T11:24:50.589Z,22.33
2022-10-30T11:27:23.205Z,14.93
2022-10-30T11:30:05.562Z,9.60
2022-10-30T11:32:34.199Z,27.73
2022-10-30T11:35:07.216Z,13.00
2022-10-30T11:37:36.147Z,9.13
2022-10-30T11:40:11.660Z,19.20
2022-10-30T11:42:42.630Z,9.67
2022-10-30T11:45:23.853Z,11.80
2022-10-30T11:47:52.118Z,15.80
2022-10-30T11:50:22.788Z,19.80
2022-10-30T11:52:53.803Z,13.10
2022-10-30T11:55:29.822Z,18.23
2022-10-30T11:57:58.392Z,12.60
2022-10-30T12:00:30.530Z,12.50
2022-10-30T12:03:02.081Z,16.57
2022-10-30T12:05:32.012Z,21.33
2022-10-30T12:08:07.820Z,16.77
2022-10-30T12:10:56.151Z,15.50
2022-10-30T12:13:24.393Z,16.00
2022-10-30T12:16:04.701Z,11.93
2022-10-30T12:18:32.394Z,10.97
2022-10-30T12:20:59.666Z,23.27
2022-10-30T12:23:28.704Z,16.30
2022-10-30T12:26:01.600Z,18.20
2022-10-30T12:28:31.524Z,18.37
2022-10-30T12:31:11.397Z,14.20
2022-10-30T12:34:06.210Z,16.87
2022-10-30T12:36:54.261Z,19.90
2022-10-30T12:39:32.517Z,10.47
2022-10-30T12:42:14.681Z,22.00
2022-10-30T12:44:47.840Z,15.60
2022-10-30T12:47:20.441Z,16.10
2022-10-30T12:50:13.997Z,14.23
2022-10-30T12:52:47.552Z,9.63
2022-10-30T12:55:41.595Z,15.03
2022-10-30T12:58:18.551Z,16.53
2022-10-30T13:00:57.549Z,14.80
2022-10-30T13:03:32.671Z,15.80
2022-10-30T13:06:16.341Z,12.60
2022-10-30T13:09:05.546Z,17.93
2022-10-30T13:11:45.648Z,11.30
2022-10-30T13:14:18.811Z,13.80
2022-10-30T13:16:45.424Z,10.23
2022-10-30T13:19:13.715Z,18.97
2022-10-30T13:21:59.253Z,12.57
2022-10-30T13:25:00.769Z,10.53
2022-10-30T13:27:51.095Z,13.93
2022-10-30T13:30:21.043Z,14.30
2022-10-30T13:33:08.941Z,15.40
2022-10-30T13:35:56.601Z,14.57
2022-10-30T13:38:40.504Z,21.67
2022-10-30T13:41:38.573Z,22.23
2022-10-30T13:44:12.296Z,12.47
2022-10-30T13:46:47.855Z,25.00
2022-10-30T13:49:27.814Z,12.63
2022-10-30T13:52:05.872Z,12.37
2022-10-30T13:54:37.580Z,15.90
2022-10-30T13:57:31.343Z,19.93
2022-10-30T14:00:13.488Z,18.67
2022-10-30T14:02:59.003Z,17.67
2022-10-30T14:05:43.918Z,10.00
2022-10-30T14:08:22.324Z,11.87
2022-10-30T14:10:57.504Z,22.87
2022-10-30T14:13:29.250Z,14.70
2022-10-30T14:16:00.626Z,22.37
2022-10-30T14:18:30.401Z,15.60
2022-10-30T14:20:59.521Z,21.07
2022-10-30T14:23:36.595Z,16.20
2022-10-30T14:26:03.461Z,13.80
2022-10-30T14:28:35.873Z,22.47
2022-10-30T14:31:28.766Z,19.37
2022-10-30T14:33:55.690Z,16.30
2022-10-30T14:36:46.919Z,24.53
2022-10-30T14:39:13.436Z,15.20
2022-10-30T14:42:07.579Z,14.53
2022-10-30T14:44:47.186Z,14.53
2022-10-30T14:47:41.888Z,30.97
2022-10-30T14:50:28.171Z,15.60
2022-10-30T14:53:09.983Z,14.13
2022-10-30T14:55:36.608Z,19.37
2022-10-30T14:58:03.163Z,22.30
2022-10-30T15:00:32.769Z,16.83
2022-10-30T15:03:39.652Z,13.33
2022-10-30T15:06:21.963Z,19.80
2022-10-30T15:09:14.798Z,12.97
2022-10-30T15:12:16.903Z,24.40
2022-10-30T15:14:59.581Z,17.90
2022-10-30T15:17:31.583Z,20.47
2022-10-30T15:20:01.425Z,15.40
2022-10-30T15:22:30.179Z,9.63
2022-10-30T15:24:56.922Z,15.03
2022-10-30T15:27:25.923Z,8.40
2022-10-30T15:29:56.235Z,18.73
2022-10-30T15:32:24.432Z,12.10
2022-10-30T15:35:02.972Z,12.63
2022-10-30T15:37:31.158Z,13.43
2022-10-30T15:40:10.723Z,15.30
2022-10-30T15:42:39.182Z,25.13
2022-10-30T15:45:15.707Z,20.37
2022-10-30T15:47:48.346Z,11.60
2022-10-30T15:50:17.003Z,10.77
2022-10-30T15:52:43.966Z,18.63
2022-10-30T15:55:16.616Z,17.20
2022-10-30T15:58:13.155Z,15.43
2022-10-30T16:00:36.744Z,20.10
2022-10-30T16:03:16.208Z,15.03
2022-10-30T16:05:42.927Z,18.17
2022-10-30T16:08:14.649Z,21.60
2022-10-30T16:10:44.055Z,15.43
2022-10-30T16:13:18.298Z,16.77
2022-10-30T16:15:47.959Z,23.10
2022-10-30T16:18:16.816Z,35.27
2022-10-30T16:20:47.840Z,55.00
2022-10-30T16:23:17.620Z,45.90
2022-10-30T16:25:47.161Z,27.07
2022-10-30T16:28:30.168Z,50.90
2022-10-30T16:31:00.119Z,60.67
2022-10-30T16:33:30.532Z,50.50
2022-10-30T16:35:58.268Z,52.47
2022-10-30T16:38:28.738Z,49.00
2022-10-30T16:40:56.313Z,43.57
2022-10-30T16:43:33.912Z,41.67
2022-10-30T16:46:15.585Z,43.93
2022-10-30T16:48:48.635Z,30.07
2022-10-30T16:51:17.621Z,28.90
2022-10-30T16:53:48.741Z,23.60
2022-10-30T16:56:26.487Z,20.17
2022-10-30T16:58:56.315Z,11.73
2022-10-30T17:01:27.078Z,17.63
2022-10-30T17:03:55.492Z,17.80
2022-10-30T17:06:40.056Z,19.50
2022-10-30T17:09:28.653Z,14.23
2022-10-30T17:12:12.901Z,15.20
2022-10-30T17:15:11.104Z,14.40
2022-10-30T17:17:40.053Z,17.30
2022-10-30T17:20:30.788Z,20.20
2022-10-30T17:23:18.991Z,13.30
2022-10-30T17:25:46.924Z,17.67
2022-10-30T17:28:46.868Z,12.43
2022-10-30T17:31:31.741Z,21.73
2022-10-30T17:34:10.950Z,11.73
2022-10-30T17:36:38.147Z,18.60
2022-10-30T17:39:04.900Z,11.47
2022-10-30T17:41:31.688Z,14.50
2022-10-30T17:43:59.593Z,13.83
2022-10-30T17:46:26.282Z,8.27
2022-10-30T17:48:53.073Z,11.63
2022-10-30T17:51:19.888Z,14.67
2022-10-30T17:53:49.729Z,14.67
2022-10-30T17:56:31.457Z,16.00
2022-10-30T17:58:58.844Z,18.97
2022-10-30T18:01:26.907Z,12.87
2022-10-30T18:03:55.393Z,13.50
2022-10-30T18:06:25.662Z,19.80
2022-10-30T18:08:53.444Z,17.67
2022-10-30T18:11:22.933Z,19.60
2022-10-30T18:13:51.777Z,17.43
2022-10-30T18:16:19.414Z,17.13
2022-10-30T18:18:46.211Z,14.30
2022-10-30T18:21:15.121Z,14.33
2022-10-30T18:23:57.707Z,18.60
2022-10-30T18:26:27.203Z,16.93
2022-10-30T18:28:54.758Z,11.37
2022-10-30T18:31:23.560Z,16.00
2022-10-30T18:33:50.361Z,15.70
2022-10-30T18:36:19.872Z,17.87
2022-10-30T18:38:47.359Z,16.67
2022-10-30T18:41:33.919Z,13.43
2022-10-30T18:44:00.981Z,16.53
2022-10-30T18:46:30.693Z,27.23
2022-10-30T18:48:57.671Z,22.40
2022-10-30T18:51:28.592Z,15.73
2022-10-30T18:53:56.949Z,19.97
2022-10-30T18:56:26.833Z,11.13
2022-10-30T18:58:58.760Z,18.23
2022-10-30T19:01:32.045Z,19.67
2022-10-30T19:04:03.606Z,15.23
2022-10-30T19:06:30.845Z,15.03
2022-10-30T19:08:57.578Z,22.10
2022-10-30T19:11:25.434Z,11.23
2022-10-30T19:13:53.827Z,15.00
2022-10-30T19:16:21.636Z,13.13
2022-10-30T19:18:48.853Z,13.33
2022-10-30T19:21:18.366Z,15.23
2022-10-30T19:23:45.356Z,18.93
2022-10-30T19:26:14.829Z,25.57
2022-10-30T19:28:41.967Z,20.63
2022-10-30T19:31:13.837Z,19.03
2022-10-30T19:33:40.655Z,14.23
2022-10-30T19:36:26.899Z,18.17
2022-10-30T19:38:54.029Z,16.20
2022-10-30T19:41:20.912Z,15.07
2022-10-30T19:43:48.295Z,16.23
2022-10-30T19:46:16.168Z,20.30
2022-10-30T19:48:59.895Z,25.77
2022-10-30T19:51:28.233Z,20.13
2022-10-30T19:53:55.475Z,20.10
2022-10-30T19:56:22.255Z,18.83
2022-10-30T19:58:49.758Z,18.37
2022-10-30T20:01:18.677Z,15.90
2022-10-30T20:03:45.896Z,19.97
2022-10-30T20:06:13.556Z,19.73
2022-10-30T20:08:40.867Z,19.70
2022-10-30T20:11:07.619Z,14.00
2022-10-30T20:13:34.666Z,21.60
2022-10-30T20:16:04.531Z,13.50
2022-10-30T20:18:34.417Z,12.70
2022-10-30T20:21:15.106Z,11.13
2022-10-30T20:23:42.057Z,15.07
2022-10-30T20:26:26.812Z,13.57
2022-10-30T20:28:54.266Z,12.33
2022-10-30T20:31:21.965Z,17.40
2022-10-30T20:33:48.573Z,10.87
2022-10-30T20:36:15.310Z,13.50
2022-10-30T20:38:42.621Z,10.13
2022-10-30T20:41:20.587Z,11.10
2022-10-30T20:43:47.277Z,12.20
2022-10-30T20:46:13.989Z,10.13
2022-10-30T20:48:40.827Z,10.33
2022-10-30T20:51:07.552Z,13.20
2022-10-30T20:53:34.270Z,14.87
2022-10-30T20:56:01.027Z,9.17
2022-10-30T20:58:27.935Z,10.43
2022-10-30T21:00:57.931Z,14.03
2022-10-30T21:03:26.005Z,12.03
2022-10-30T21:05:58.408Z,7.40
2022-10-30T21:08:29.553Z,9.80
2022-10-30T21:11:03.711Z,7.97
2022-10-30T21:13:30.845Z,16.40
2022-10-30T21:16:04.615Z,7.37
2022-10-30T21:18:31.480Z,14.73
2022-10-30T21:21:06.405Z,12.23
2022-10-30T21:23:33.026Z,21.33
2022-10-30T21:26:00.942Z,13.80
2022-10-30T21:28:27.530Z,17.27
2022-10-30T21:30:54.130Z,21.33
2022-10-30T21:33:20.705Z,33.77
2022-10-30T21:35:47.274Z,32.13
2022-10-30T21:38:13.815Z,29.03
2022-10-30T21:40:40.445Z,37.37
2022-10-30T21:43:07.511Z,34.50
2022-10-30T21:45:34.373Z,29.33
2022-10-30T21:48:01.235Z,32.13
2022-10-30T21:50:27.795Z,36.53
2022-10-30T21:52:54.878Z,32.23
2022-10-30T21:55:21.449Z,39.93
2022-10-30T21:57:48.004Z,31.20
2022-10-30T22:00:15.285Z,36.40
2022-10-30T22:02:41.828Z,32.10
2022-10-30T22:05:09.057Z,44.53
2022-10-30T22:07:35.683Z,33.90
2022-10-30T22:10:02.374Z,32.23
2022-10-30T22:12:28.951Z,32.90
2022-10-30T22:14:55.501Z,31.43
2022-10-30T22:17:22.116Z,30.03
2022-10-30T22:19:48.699Z,35.60
2022-10-30T22:22:15.463Z,30.70
2022-10-30T22:24:42.142Z,28.83
2022-10-30T22:27:08.699Z,25.23
2022-10-30T22:29:35.687Z,28.10
2022-10-30T22:32:02.337Z,28.70
2022-10-30T22:34:29.085Z,24.27
2022-10-30T22:36:55.703Z,24.53
2022-10-30T22:39:22.360Z,37.00
2022-10-30T22:41:49.620Z,27.00
2022-10-30T22:44:18.539Z,24.60
2022-10-30T22:46:45.210Z,26.73
2022-10-30T22:49:11.910Z,23.30
2022-10-30T22:51:39.990Z,22.20
2022-10-30T22:54:09.589Z,38.50
2022-10-30T22:56:36.997Z,24.77
2022-10-30T22:59:10.967Z,18.67
2022-10-30T23:01:38.755Z,24.77
2022-10-30T23:04:06.692Z,24.03
2022-10-30T23:06:34.768Z,27.60
2022-10-30T23:09:05.378Z,43.70
2022-10-30T23:11:33.425Z,41.77
2022-10-30T23:14:00.034Z,56.03
2022-10-30T23:16:27.640Z,41.33
2022-10-30T23:18:56.782Z,37.07
2022-10-30T23:21:25.322Z,33.30
2022-10-30T23:23:52.590Z,39.53
2022-10-30T23:26:21.996Z,38.20
2022-10-30T23:28:50.729Z,28.17
2022-10-30T23:31:23.405Z,24.37
2022-10-30T23:33:51.591Z,27.90
2022-10-30T23:36:18.725Z,33.10
2022-10-30T23:38:51.194Z,45.17
2022-10-30T23:41:17.829Z,44.27
2022-10-30T23:43:44.482Z,34.00
2022-10-30T23:46:11.052Z,29.97
2022-10-30T23:48:37.697Z,29.20
2022-10-30T23:51:08.305Z,30.20
2022-10-30T23:53:35.149Z,31.40
2022-10-30T23:56:01.927Z,31.33
2022-10-30T23:58:28.513Z,31.77
